MTA weather

Matamata Glider Airport
Waikato Region, New Zealand

Public forecast

Using degrees Celsius for public forecast. Weather courtesy of forecast.io.

METAR (pilot weather report)

Closest report is Auckland International Airport, 62.9 nm (116.5 km) NW. Retrieved 2019/07/18 22:30 UTC (6 minutes ago):

NZAA 182230Z AUTO 04017KT 8000 -RA FEW021/// BKN070/// OVC085/// 14/13 Q1001 TEMPO 4000 RA BKN014

TAF (pilot weather forecast)

Closest forecast is Auckland International Airport, 62.9 nm (116.5 km) NW. Retrieved 2019/07/18 18:06 UTC (5 hours ago):

TAF TAF NZAA 181703Z 1818/1918 04010KT 9999 -SHRA BKN040 BECMG 1818/1820 04015G25KT TEMPO 1821/1903 4000 RA BKN014 FEW020CB PROB30 TEMPO 1823/1903 02020G35KT 2500 SHRAGS SCT018CB BECMG 1901/1903 27012KT TEMPO 1903/1918 6000 SHRA FEW020CB